Home > Products > Valid Products > TAF

000
FTUS46 KEKA 010217 AAA
TAFCEC
TAF AMD
KCEC 010217Z 0102/0124 35014G22KT 6SM HZ SKC
     FM010900 36008KT P6SM SKC
     FM011100 36008G16KT 4SM BR SKC
     FM011600 34012G20KT P6SM SKC=



000
FTUS46 KEKA 010216 AAA
TAFACV
TAF AMD
KACV 010216Z 0102/0124 VRB04KT P6SM SKC
     FM010500 07003KT P6SM SKC
     FM011200 09003KT 3SM MIFG FEW001 SCT012
     FM011500 VRB03KT P6SM FEW020
     FM011700 34007KT P6SM SKC=



000
FTUS46 KEKA 302344
TAFACV
TAF
KACV 302344Z 0100/0124 35010G18KT P6SM SKC
     FM010500 07003KT P6SM SKC
     FM011200 09003KT 3SM MIFG FEW001 SCT012
     FM011500 VRB03KT P6SM FEW020
     FM011700 34007KT P6SM SKC=



000
FTUS46 KEKA 302344
TAFUKI
TAF
KUKI 302344Z 0100/0124 33008G16KT P6SM SKC
     FM010300 VRB03KT P6SM SKC
     FM012100 27007KT P6SM SKC=



000
FTUS46 KEKA 302344
TAFCEC
TAF
KCEC 302344Z 0100/0124 34026G34KT P6SM SKC
     FM010400 35014G22KT P6SM SKC
     FM010900 36008KT P6SM SKC
     FM011100 36008G16KT 4SM BR SKC
     FM011600 34012G20KT P6SM SKC=



000
FTUS46 KEKA 302113 AAA
TAFACV
TAF AMD
KACV 302113Z 3021/0118 34016G24KT P6SM SKC
     FM010300 35010G18KT P6SM SKC
     FM010500 VRB02KT P6SM SKC
     FM011200 VRB02KT 3SM MIFG FEW001 SCT012
     FM011500 VRB02KT P6SM FEW020=



000
FTUS46 KEKA 301724
TAFACV
TAF
KACV 301724Z 3018/0118 34016G24KT P6SM SKC
     FM302100 34024G32KT P6SM SKC
     FM010000 34016G22KT P6SM SKC
     FM010400 VRB02KT P6SM SKC
     FM011200 VRB02KT 3SM MIFG FEW001 SCT012
     FM011500 VRB02KT P6SM FEW020=



000
FTUS46 KEKA 301724
TAFUKI
TAF
KUKI 301724Z 3018/0118 VRB04KT P6SM SKC
     FM302000 33008G16KT P6SM SKC
     FM010200 VRB02KT P6SM SKC=



000
FTUS46 KEKA 301724
TAFCEC
TAF
KCEC 301724Z 3018/0118 34026G34KT P6SM SKC
     FM010400 35014G22KT P6SM SKC
     FM010900 36008KT P6SM SKC
     FM011100 36008G16KT 4SM BR SKC
     FM011600 34012G20KT P6SM SKC=



000
FTUS46 KEKA 301724
TAFACV
TAF
KACV 301724Z 3018/0118 34016G24KT P6SM SKC
     FM302100 34024G32KT P6SM SKC
     FM010000 34016G22KT P6SM SKC
     FM010400 VRB02KT P6SM SKC
     FM011200 VRB02KT 3SM MIFG FEW001 SCT012
     FM011500 VRB02KT P6SM FEW020=



000
FTUS46 KEKA 301724
TAFCEC
TAF
KCEC 301724Z 3018/0118 34026G34KT P6SM SKC
     FM010400 35014G22KT P6SM SKC
     FM010900 36008KT P6SM SKC
     FM011100 36008G16KT 4SM BR SKC
     FM011600 34012G20KT P6SM SKC=



000
FTUS46 KEKA 301724
TAFUKI
TAF
KUKI 301724Z 3018/0118 VRB04KT P6SM SKC
     FM302000 33008G16KT P6SM SKC
     FM010200 VRB02KT P6SM SKC=



000
FTUS46 KEKA 301121
TAFUKI
TAF
KUKI 301121Z 3012/0112 34005KT P6SM SKC
     FM301800 01012G18KT P6SM SKC
     FM010100 34008KT P6SM SKC
     FM010400 16003KT P6SM SKC
     FM010800 VRB03KT P6SM SKC=



000
FTUS46 KEKA 301121
TAFCEC
TAF
KCEC 301121Z 3012/0112 35015G20KT P6SM SKC
     FM301600 34020G28KT P6SM SKC
     FM301800 34028G35KT P6SM SKC
     FM010200 34022G30KT P6SM SKC
     FM010500 35015G20KT P6SM SKC
     FM010900 36010G18KT P6SM SKC=



000
FTUS46 KEKA 301121
TAFACV
TAF
KACV 301121Z 3012/0112 36010KT P6SM SKC
     FM301700 33015G20KT P6SM SKC
     FM301900 34025G33KT P6SM SKC
     FM010100 34015G22KT P6SM SKC
     FM010400 36008KT P6SM SKC
     FM010600 VRB03KT P6SM SKC=



000
FTUS46 KEKA 300937 AAA
TAFUKI
TAF AMD
KUKI 300937Z 3010/0106 VRB03KT P6SM SKC
     FM301700 33012G18KT P6SM SKC
     FM010100 31008KT P6SM SKC
     FM010300 VRB03KT P6SM SKC=



000
FTUS46 KEKA 300935 AAA
TAFCEC
TAF AMD
KCEC 300935Z 3010/0106 34015G20KT P6SM SKC
     FM301200 34012G18KT P6SM SKC
     FM301700 34025G30KT P6SM SKC
     FM302000 34028G34KT P6SM SKC
     FM010300 35020G25KT P6SM SKC
     FM010500 35012G18KT P6SM SKC=



000
FTUS46 KEKA 300702 AAA
TAFACV
TAF AMD
KACV 300702Z 3007/0106 36010KT P6SM SKC
     FM301700 34010G18KT P6SM FEW020 SCT250
     FM302100 33017G25KT P6SM SKC
     FM010300 35010G18KT P6SM SKC=



000
FTUS46 KEKA 300702 AAA
TAFACV
TAF AMD
KACV 300702Z 3007/0106 36010KT P6SM SKC
     FM301700 34010G18KT P6SM FEW020 SCT250
     FM302100 33017G25KT P6SM SKC
     FM010300 35010G18KT P6SM SKC=



000
FTUS46 KEKA 300521
TAFACV
TAF
KACV 300521Z 3006/0106 02010KT P6SM BKN015
     FM301700 34010G18KT P6SM FEW020 SCT250
     FM302100 33017G25KT P6SM SKC
     FM010300 35010G18KT P6SM SKC=



000
FTUS46 KEKA 300521
TAFUKI
TAF
KUKI 300521Z 3006/0106 35006KT P6SM SKC
     FM302100 34012G21KT P6SM SKC
     FM010300 35009KT P6SM SKC=



000
FTUS46 KEKA 300521
TAFCEC
TAF
KCEC 300521Z 3006/0106 34016G24KT P6SM SKC
     FM300800 36011G18KT P6SM FEW010 SCT020 SCT250
     FM301700 34014G24KT P6SM SKC
     FM302100 34022G30KT P6SM SKC
     FM010300 35014G24KT P6SM SKC=



000
FTUS46 KEKA 300127 AAA
TAFACV
TAF AMD
KACV 300127Z 3001/3024 34014G21KT P6SM BKN025
     FM300300 35010KT 6SM BR BKN015 OVC025
     FM301700 32010G18KT P6SM FEW020 SCT250
     FM302100 34016G24KT P6SM SKC=



000
FTUS46 KEKA 300127 AAA
TAFACV
TAF AMD
KACV 300127Z 3001/3024 34014G21KT P6SM BKN025
     FM300300 35010KT 6SM BR BKN015 OVC025
     FM301700 32010G18KT P6SM FEW020 SCT250
     FM302100 34016G24KT P6SM SKC=



000
FTUS46 KEKA 292333
TAFCEC
TAF
KCEC 292333Z 3000/3024 34018G24KT P6SM SKC
     FM300500 36011G18KT P6SM FEW010 SCT020 SCT250
     FM301700 34014G24KT P6SM SKC
     FM302100 34022G30KT P6SM SKC=



000
FTUS46 KEKA 292333
TAFACV
TAF
KACV 292333Z 3000/3024 34014G21KT P6SM SCT020
     FM300300 35010KT 6SM BR BKN015 OVC025
     FM301700 32010G18KT P6SM FEW020 SCT250
     FM302100 34016G24KT P6SM SKC=



000
FTUS46 KEKA 292333
TAFUKI
TAF
KUKI 292333Z 3000/3024 31008G16KT P6SM FEW250
     FM300300 VRB03KT P6SM SKC
     FM302100 34012G21KT P6SM SKC=



000
FTUS46 KEKA 291720
TAFCEC
TAF
KCEC 291720Z 2918/3018 33010KT P6SM FEW014 SCT024 BKN070
     FM292000 34016G24KT P6SM FEW020 SCT050
     FM301000 36012G20KT P6SM FEW010 SCT020 SCT250=



000
FTUS46 KEKA 291720
TAFUKI
TAF
KUKI 291720Z 2918/3018 31008G16KT P6SM FEW020 SCT250
     FM292300 31016G24KT P6SM FEW250
     FM300300 35010G16KT P6SM SCT250
     FM301000 VRB06KT P6SM SCT250=



000
FTUS46 KEKA 291720
TAFACV
TAF
KACV 291720Z 2918/3018 34010KT P6SM FEW010 SCT020 BKN030
     FM292000 34016G24KT P6SM FEW020 SCT050
     FM300300 35010G16KT 6SM BR BKN015 OVC025
     FM301700 32010G18KT P6SM FEW020 SCT250=



000
FTUS46 KEKA 291720
TAFCEC
TAF
KCEC 291720Z 2918/3018 33010KT P6SM FEW014 SCT024 BKN070
     FM292000 34016G24KT P6SM FEW020 SCT050
     FM301000 36012G20KT P6SM FEW010 SCT020 SCT250=



000
FTUS46 KEKA 291720
TAFUKI
TAF
KUKI 291720Z 2918/3018 31008G16KT P6SM FEW020 SCT250
     FM292300 31016G24KT P6SM FEW250
     FM300300 35010G16KT P6SM SCT250
     FM301000 VRB06KT P6SM SCT250=



000
FTUS46 KEKA 291720
TAFACV
TAF
KACV 291720Z 2918/3018 34010KT P6SM FEW010 SCT020 BKN030
     FM292000 34016G24KT P6SM FEW020 SCT050
     FM300300 35010G16KT 6SM BR BKN015 OVC025
     FM301700 32010G18KT P6SM FEW020 SCT250=



000
FTUS46 KEKA 291352 CCB
TAFACV
TAF COR
KACV 291352Z 2912/3012 VRB03KT 5SM -DZ BR BKN010 OVC015
     FM291600 33006KT P6SM OVC015
     FM291900 33018G22KT P6SM BKN050
     FM292300 33015G20KT P6SM SCT050
     FM300400 36006KT P6SM OVC050
     FM300700 VRB03KT 6SM BR OVC015=



000
FTUS46 KEKA 291325 CCA
TAFACV
TAF COR
KACV 291325Z 2912/3012 VRB03KT 5SM -DZ BR BKN010 OVC015
     FM291400 33006KT P6SM OVC015
     FM291600 32008KT P6SM OVC020
     FM291900 33018G22KT P6SM BKN050
     FM292300 33015G20KT P6SM SCT050
     FM300400 36006KT P6SM OVC050
     FM300700 VRB03KT 6SM BR OVC015=



000
FTUS46 KEKA 291325 CCA
TAFACV
TAF COR
KACV 291325Z 2912/3012 VRB03KT 5SM -DZ BR BKN010 OVC015
     FM291400 33006KT P6SM OVC015
     FM291600 32008KT P6SM OVC020
     FM291900 33018G22KT P6SM BKN050
     FM292300 33015G20KT P6SM SCT050
     FM300400 36006KT P6SM OVC050
     FM300700 VRB03KT 6SM BR OVC015=



000
FTUS46 KEKA 291315 CCB
TAFCEC
TAF COR
KCEC 291315Z 2912/3012 VRB03KT P6SM BKN016
     FM291300 VRB06KT P6SM BKN020 OVC070
     FM291700 32008KT P6SM BKN060
     FM292100 32015G22KT P6SM BKN050
     FM300100 35018G24KT P6SM SKC
     FM300800 35015G24KT P6SM SKC=



000
FTUS46 KEKA 291159 CCA
TAFCEC
TAF COR
KCEC 291159Z 2912/3012 VRB03KT P6SM BKN016
     FM291300 01005KT P6SM BKN020
     FM291700 32008KT P6SM BKN060
     FM292100 32015G22KT P6SM BKN050
     FM300100 35018G24KT P6SM SKC
     FM300800 35015G24KT P6SM SKC=



000
FTUS46 KEKA 291159 CCA
TAFCEC
TAF COR
KCEC 291159Z 2912/3012 VRB03KT P6SM BKN016
     FM291300 01005KT P6SM BKN020
     FM291700 32008KT P6SM BKN060
     FM292100 32015G22KT P6SM BKN050
     FM300100 35018G24KT P6SM SKC
     FM300800 35015G24KT P6SM SKC=



000
FTUS46 KEKA 291123
TAFUKI
TAF
KUKI 291123Z 2912/3012 VRB03KT P6SM SCT250
     FM291800 33012G18KT P6SM SCT250
     FM292200 31018G24KT P6SM SCT250
     FM300300 33015G20KT P6SM SCT250
     FM300600 35010G15KT P6SM SKC
     FM300900 35005KT P6SM SKC=



000
FTUS46 KEKA 291123
TAFCEC
TAF
KCEC 291123Z 2912/3012 VRB06KT P6SM BKN080
     FM291300 01005KT P6SM BKN050
     FM291700 32008KT P6SM BKN060
     FM292100 32015G22KT P6SM BKN050
     FM300100 35018G24KT P6SM SKC
     FM300800 35015G24KT P6SM SKC=



000
FTUS46 KEKA 291123
TAFACV
TAF
KACV 291123Z 2912/3012 35004KT 5SM -DZ BR OVC012
     FM291400 33006KT P6SM OVC015
     FM291600 32008KT P6SM OVC020
     FM291900 33018G22KT P6SM BKN050
     FM292300 33015G20KT P6SM SCT050
     FM300400 36006KT P6SM OVC050
     FM300700 VRB03KT 6SM BR OVC015=



000
FTUS46 KEKA 291022 CCA
TAFACV
TAF COR
KACV 291022Z 2909/3006 VRB03KT P6SM -DZ OVC014
     FM291200 34006KT P6SM -DZ OVC010
     FM291300 32005KT P6SM SCT006 OVC010
     FM291900 31016G22KT P6SM SCT050=



000
FTUS46 KEKA 291022 CCB
TAFCEC
TAF COR
KCEC 291022Z 2908/3006 VRB03KT P6SM SCT013
     FM291200 34005KT P6SM OVC015
     FM291800 35009KT P6SM SCT015
     FM292100 32013KT P6SM SKC=



000
FTUS46 KEKA 291022 CCB
TAFCEC
TAF COR
KCEC 291022Z 2908/3006 VRB03KT P6SM SCT013
     FM291200 34005KT P6SM OVC015
     FM291800 35009KT P6SM SCT015
     FM292100 32013KT P6SM SKC=



000
FTUS46 KEKA 291022 CCA
TAFACV
TAF COR
KACV 291022Z 2909/3006 VRB03KT P6SM -DZ OVC014
     FM291200 34006KT P6SM -DZ OVC010
     FM291300 32005KT P6SM SCT006 OVC010
     FM291900 31016G22KT P6SM SCT050=



000
FTUS46 KEKA 291021 CCA
TAFCEC
TAF COR
KCEC 291021Z 2908/3006 VRB03KT P6SM OVC015
     FM291200 34005KT P6SM OVC015
     FM291800 35009KT P6SM SCT015
     FM292100 32013KT P6SM SKC=



000
FTUS46 KEKA 290909 AAB
TAFACV
TAF AMD
KACV 290909Z 2909/3006 35008KT P6SM -DZ OVC010
     FM291000 34006KT P6SM -DZ OVC010
     FM291200 32005KT P6SM SCT006 OVC010
     FM291900 31016G22KT P6SM SCT050=



000
FTUS46 KEKA 290909 AAB
TAFACV
TAF AMD
KACV 290909Z 2909/3006 35008KT P6SM -DZ OVC010
     FM291000 34006KT P6SM -DZ OVC010
     FM291200 32005KT P6SM SCT006 OVC010
     FM291900 31016G22KT P6SM SCT050=



000
FTUS46 KEKA 290813 AAA
TAFUKI
TAF AMD
KUKI 290813Z 2908/3006 VRB03KT P6SM SCT250
     FM292100 30012G19KT P6SM BKN250
     FM300300 34009KT P6SM SCT250=



000
FTUS46 KEKA 290813 AAA
TAFUKI
TAF AMD
KUKI 290813Z 2908/3006 VRB03KT P6SM SCT250
     FM292100 30012G19KT P6SM BKN250
     FM300300 34009KT P6SM SCT250=



000
FTUS46 KEKA 290812 AAA
TAFCEC
TAF AMD
KCEC 290812Z 2908/3006 34006KT 5SM BR OVC015
     FM291000 34005KT 6SM BR OVC010
     FM291800 35009KT P6SM SCT015
     FM292100 32013KT P6SM SKC=



000
FTUS46 KEKA 290811 AAA
TAFACV
TAF AMD
KACV 290811Z 2908/3006 35008KT 5SM -DZ BR OVC006
     FM291000 33006KT 5SM BR OVC010
     FM291200 32005KT P6SM SCT006 OVC010
     FM291900 31016G22KT P6SM SCT050=



000
FTUS46 KEKA 290530
TAFUKI
TAF
KUKI 290530Z 2906/3006 VRB03KT P6SM SCT007
     FM292100 30012G19KT P6SM BKN250
     FM300300 34009KT P6SM SCT250=



000
FTUS46 KEKA 290530
TAFACV
TAF
KACV 290530Z 2906/3006 35008KT 6SM BR SCT006 OVC015
     FM291200 05003KT P6SM SCT006 OVC010
     FM291900 31016G22KT P6SM SCT050=



000
FTUS46 KEKA 290530
TAFCEC
TAF
KCEC 290530Z 2906/3006 35009KT P6SM FEW007 OVC015
     FM291000 02005KT 6SM BR BKN006 OVC010
     FM291800 35009KT P6SM SCT015
     FM292100 32013KT P6SM SKC=



000
FTUS46 KEKA 290530
TAFCEC
TAF
KCEC 290530Z 2906/3006 35009KT P6SM FEW007 OVC015
     FM291000 02005KT 6SM BR BKN006 OVC010
     FM291800 35009KT P6SM SCT015
     FM292100 32013KT P6SM SKC=



000
FTUS46 KEKA 290530
TAFUKI
TAF
KUKI 290530Z 2906/3006 VRB03KT P6SM SCT007
     FM292100 30012G19KT P6SM BKN250
     FM300300 34009KT P6SM SCT250=



000
FTUS46 KEKA 290530
TAFACV
TAF
KACV 290530Z 2906/3006 35008KT 6SM BR SCT006 OVC015
     FM291200 05003KT P6SM SCT006 OVC010
     FM291900 31016G22KT P6SM SCT050=



000
FTUS46 KEKA 282326
TAFCEC
TAF
KCEC 282326Z 2900/2924 33019G31KT P6SM SKC
     FM290300 34012KT P6SM SCT020
     FM290600 35009KT P6SM FEW012 BKN020
     FM291100 02005KT 6SM BR SCT010 OVC020
     FM291600 35009KT P6SM SCT050=



000
FTUS46 KEKA 282326
TAFACV
TAF
KACV 282326Z 2900/2924 33015G22KT P6SM SKC
      TEMPO 2900/2902 BKN020
     FM290200 33012KT P6SM SCT015 BKN020
     FM290500 35008KT 6SM BR SCT006 OVC010
     FM291900 35016G22KT P6SM SCT050=



000
FTUS46 KEKA 282326
TAFUKI
TAF
KUKI 282326Z 2900/2924 32009G15KT P6SM SKC
     FM290300 VRB03KT P6SM SCT007
     FM292100 30012G19KT P6SM BKN250=



000
FTUS46 KEKA 282207 AAA
TAFACV
TAF AMD
KACV 282207Z 2822/2918 33016G22KT P6SM SKC
      TEMPO 2822/2902 BKN020
     FM290200 33012KT P6SM SCT015 BKN020
     FM290500 35008KT 6SM BR SCT006 OVC010=



000
FTUS46 KEKA 281723
TAFUKI
TAF
KUKI 281723Z 2818/2918 VRB05KT P6SM SKC
     FM282100 32009G15KT P6SM FEW100 SCT250
     FM290300 VRB03KT P6SM SCT007=



000
FTUS46 KEKA 281723
TAFACV
TAF
KACV 281723Z 2818/2918 30005KT P6SM BKN015
     FM281930 31009KT P6SM SCT015
     FM282300 33016G22KT P6SM SKC
     FM290200 33012KT P6SM SCT015 BKN020
     FM290500 35008KT 6SM BR SCT006 OVC010=



000
FTUS46 KEKA 281723
TAFCEC
TAF
KCEC 281723Z 2818/2918 34012G22KT P6SM FEW007
     FM282100 33016G27KT P6SM SKC
     FM290300 34012KT P6SM SCT025
     FM290600 35009KT P6SM FEW012 BKN025
     FM291100 02005KT 6SM BR OVC025
     FM291600 35009KT P6SM BKN050=



000
FTUS46 KEKA 281355 AAB
TAFCEC
TAF AMD
KCEC 281355Z 2814/2912 36012G19KT P6SM SCT007
     FM281800 34013G22KT P6SM FEW007
     FM282100 33016G27KT P6SM SCT030
     FM290300 34013KT P6SM SCT025
     FM290800 05007KT P6SM FEW007 SCT015=



000
FTUS46 KEKA 281306 AAA
TAFCEC
TAF AMD
KCEC 281306Z 2813/2912 36010G17KT 5SM BR OVC007
     FM281500 34011G17KT P6SM SCT007 OVC015
     FM281800 34013G20KT P6SM SCT004 BKN030
     FM282100 33016G25KT P6SM SCT030
     FM290300 34013KT P6SM SCT025
     FM290800 05007KT P6SM FEW007 SCT015=



000
FTUS46 KEKA 281122
TAFCEC
TAF
KCEC 281122Z 2812/2912 36005KT 6SM BR SCT004 BKN010
      TEMPO 2812/2815 2SM BR OVC004
     FM281800 34011G17KT P6SM SCT004 BKN030
     FM282100 33016G25KT P6SM SCT030
     FM290300 34013KT P6SM SCT025
     FM290800 05007KT P6SM FEW007 SCT015=



000
FTUS46 KEKA 281122
TAFUKI
TAF
KUKI 281122Z 2812/2912 VRB04KT P6SM SCT035
     FM281500 34007KT P6SM FEW040 SCT200
     FM282100 32009G15KT P6SM FEW100 SCT250
     FM290300 VRB03KT P6SM SCT007=



000
FTUS46 KEKA 281122
TAFACV
TAF
KACV 281122Z 2812/2912 VRB03KT 6SM BR SCT010 OVC018
     FM281700 33015KT P6SM FEW015 SCT025 SCT050
     FM282100 33017G26KT P6SM FEW020 SCT030 SCT050
     FM290200 33014KT P6SM SCT015 BKN020
     FM290400 35008KT 6SM BR SCT006 OVC010=



000
FTUS46 KEKA 281122
TAFCEC
TAF
KCEC 281122Z 2812/2912 36005KT 6SM BR SCT004 BKN010
      TEMPO 2812/2815 2SM BR OVC004
     FM281800 34011G17KT P6SM SCT004 BKN030
     FM282100 33016G25KT P6SM SCT030
     FM290300 34013KT P6SM SCT025
     FM290800 05007KT P6SM FEW007 SCT015=



000
FTUS46 KEKA 281122
TAFACV
TAF
KACV 281122Z 2812/2912 VRB03KT 6SM BR SCT010 OVC018
     FM281700 33015KT P6SM FEW015 SCT025 SCT050
     FM282100 33017G26KT P6SM FEW020 SCT030 SCT050
     FM290200 33014KT P6SM SCT015 BKN020
     FM290400 35008KT 6SM BR SCT006 OVC010=



000
FTUS46 KEKA 281122
TAFUKI
TAF
KUKI 281122Z 2812/2912 VRB04KT P6SM SCT035
     FM281500 34007KT P6SM FEW040 SCT200
     FM282100 32009G15KT P6SM FEW100 SCT250
     FM290300 VRB03KT P6SM SCT007=



000
FTUS46 KEKA 280900 AAA
TAFACV
TAF AMD
KACV 280900Z 2809/2906 08004KT P6SM SCT009 OVC015
     FM281200 VRB03KT 5SM BR SCT015 SCT025 OVC035
     FM281800 33015KT P6SM SCT025 OVC050
     FM282100 33018G27KT P6SM SCT025 BKN030 BKN050=



000
FTUS46 KEKA 280900 AAA
TAFCEC
TAF AMD
KCEC 280900Z 2809/2906 05004KT 4SM BR SCT007 SCT015 OVC025
      TEMPO 2809/2812 1SM BR OVC004
     FM281200 05005KT 6SM BR SCT004 BKN015 OVC025
     FM281800 33011G17KT P6SM BKN030 OVC050
     FM282100 22016G25KT P6SM SCT030 BKN050=



000
FTUS46 KEKA 280536
TAFACV
TAF
KACV 280536Z 2806/2906 34009KT 5SM -RA BR BKN007 BKN012 OVC020
      TEMPO 2806/2809 6SM BR SCT009 BKN012 OVC025
     FM280900 08004KT P6SM SCT009 BKN015 OVC025
     FM281200 VRB03KT 5SM BR SCT015 SCT025 OVC035
     FM281800 33015KT P6SM SCT025 OVC050
     FM282100 33018G27KT P6SM SCT025 BKN030 BKN050=



000
FTUS46 KEKA 280536
TAFCEC
TAF
KCEC 280536Z 2806/2906 35008KT 4SM BR SCT007 SCT015 OVC025
      TEMPO 2807/2810 6SM BKN015 OVC025
     FM281000 35008KT P6SM SCT015 BKN025 BKN050
     FM281200 35005KT 5SM BR BKN015 OVC025
     FM281800 33011G17KT P6SM BKN030 OVC050
     FM282100 22016G25KT P6SM SCT030 BKN050=



000
FTUS46 KEKA 280536
TAFUKI
TAF
KUKI 280536Z 2806/2906 31008KT P6SM SCT030 OVC040
     FM281500 35007KT P6SM SCT040 SCT100 SCT200
     FM282100 32012KT P6SM FEW100 SCT250=



000
FTUS46 KEKA 280503 AAB
TAFACV
TAF AMD
KACV 280503Z 2805/2824 34010KT 6SM -RA BR SCT010 BKN018 OVC025
     FM280800 03008KT P6SM SCT012 OVC025
      TEMPO 2808/2810 BKN012
     FM281600 35015KT P6SM SCT025 OVC050=



000
FTUS46 KEKA 280500 AAA
TAFCEC
TAF AMD
KCEC 280500Z 2805/2824 33009KT 5SM -RA BR SCT007 SCT015 OVC025
      TEMPO 2806/2808 BKN007
     FM280800 11008KT P6SM SCT015 OVC025
     FM281800 33015G20KT P6SM BKN030 OVC050=



000
FTUS46 KEKA 280500 AAA
TAFCEC
TAF AMD
KCEC 280500Z 2805/2824 33009KT 5SM -RA BR SCT007 SCT015 OVC025
      TEMPO 2806/2808 BKN007
     FM280800 11008KT P6SM SCT015 OVC025
     FM281800 33015G20KT P6SM BKN030 OVC050=



000
FTUS46 KEKA 280306 AAA
TAFACV
TAF AMD
KACV 280306Z 2803/2824 34013G20KT 3SM -RA BR BKN010 BKN018 OVC025
     FM280400 34011G16KT 6SM -RA BR SCT010 BKN018 OVC025
      TEMPO 2804/2806 35009KT 4SM -RA BR SCT018 OVC025
     FM280600 03008KT P6SM SCT012 OVC030
     FM281600 35015KT P6SM SCT025 OVC050=



    US Dept of Commerce
    National Oceanic and Atmospheric Administration
    National Weather Service
    1325 East West Highway
    Silver Spring, MD 20910
    Page Author: NWS Internet Services Team
Disclaimer
Information Quality
Credits
Glossary
Privacy Policy
Freedom of Information Act (FOIA)
About Us
Career Opportunities